createdAt,value
2022-11-19T00:01:21.956Z,2.82
2022-11-19T00:04:08.078Z,2.51
2022-11-19T00:06:54.108Z,2.68
2022-11-19T00:09:40.451Z,2.37
2022-11-19T00:12:45.042Z,2.39
2022-11-19T00:15:30.937Z,2.35
2022-11-19T00:18:16.868Z,2.30
2022-11-19T00:21:06.893Z,2.33
2022-11-19T00:23:55.630Z,1.97
2022-11-19T00:26:41.695Z,1.93
2022-11-19T00:29:27.682Z,2.13
2022-11-19T00:32:13.725Z,2.07
2022-11-19T00:34:59.523Z,1.88
2022-11-19T00:37:45.381Z,1.95
2022-11-19T00:40:31.182Z,2.20
2022-11-19T00:43:37.826Z,1.89
2022-11-19T00:46:25.124Z,1.75
2022-11-19T00:49:11.350Z,1.68
2022-11-19T00:51:57.199Z,2.32
2022-11-19T00:54:42.985Z,2.04
2022-11-19T00:57:28.867Z,2.43
2022-11-19T01:00:14.989Z,1.99
2022-11-19T01:03:00.663Z,1.75
2022-11-19T01:05:46.370Z,1.94
2022-11-19T01:08:32.315Z,1.62
2022-11-19T01:11:19.328Z,1.55
2022-11-19T01:14:05.890Z,1.72
2022-11-19T01:16:52.212Z,1.45
2022-11-19T01:19:38.115Z,1.28
2022-11-19T01:22:24.452Z,1.52
2022-11-19T01:25:10.287Z,1.15
2022-11-19T01:27:57.829Z,1.00
2022-11-19T01:30:43.796Z,0.97
2022-11-19T01:33:29.568Z,0.94
2022-11-19T01:36:22.844Z,1.00
2022-11-19T01:39:08.956Z,0.86
2022-11-19T01:41:54.760Z,0.86
2022-11-19T01:44:56.066Z,0.96
2022-11-19T01:47:41.879Z,0.97
2022-11-19T01:50:28.094Z,0.94
2022-11-19T01:53:14.068Z,0.80
2022-11-19T01:56:04.042Z,0.81
2022-11-19T01:58:51.467Z,0.72
2022-11-19T02:01:37.341Z,0.77
2022-11-19T02:04:23.899Z,0.50
2022-11-19T02:07:09.860Z,0.45
2022-11-19T02:09:56.544Z,0.62
2022-11-19T02:12:47.752Z,0.60
2022-11-19T02:15:37.391Z,0.52
2022-11-19T02:18:23.085Z,0.45
2022-11-19T02:21:12.483Z,0.63
2022-11-19T02:24:04.440Z,0.54
2022-11-19T02:27:09.135Z,0.55
2022-11-19T02:29:54.974Z,0.77
2022-11-19T02:32:44.876Z,0.76
2022-11-19T02:35:34.810Z,0.45
2022-11-19T02:38:23.992Z,0.39
2022-11-19T02:41:34.243Z,0.41
2022-11-19T02:44:47.231Z,0.74
2022-11-19T02:47:34.387Z,0.36
2022-11-19T02:50:58.903Z,0.17
2022-11-19T02:53:47.183Z,0.07
2022-11-19T02:56:47.275Z,0.28
2022-11-19T02:59:54.145Z,0.70
2022-11-19T03:03:00.310Z,0.61
2022-11-19T03:05:47.370Z,0.95
2022-11-19T03:08:33.469Z,0.56
2022-11-19T03:11:23.273Z,0.58
2022-11-19T03:14:31.430Z,1.11
2022-11-19T03:17:17.984Z,1.62
2022-11-19T03:20:18.959Z,1.30
2022-11-19T03:23:12.177Z,1.10
2022-11-19T03:26:00.036Z,1.22
2022-11-19T03:28:45.571Z,1.01
2022-11-19T03:31:33.260Z,1.19
2022-11-19T03:34:20.806Z,0.47
2022-11-19T03:37:08.721Z,0.38
2022-11-19T03:39:56.772Z,0.41
2022-11-19T03:42:45.020Z,0.23
2022-11-19T03:45:40.993Z,0.38
2022-11-19T03:48:28.334Z,0.35
2022-11-19T03:51:18.774Z,0.98
2022-11-19T03:54:05.235Z,1.38
2022-11-19T03:56:51.614Z,1.61
2022-11-19T03:59:37.967Z,1.45
2022-11-19T04:02:23.950Z,1.90
2022-11-19T04:05:10.171Z,1.55
2022-11-19T04:07:56.157Z,1.34
2022-11-19T04:10:42.613Z,2.04
2022-11-19T04:13:28.887Z,1.23
2022-11-19T04:16:15.252Z,1.85
2022-11-19T04:19:01.136Z,1.78
2022-11-19T04:21:47.693Z,0.85
2022-11-19T04:24:33.555Z,1.66
2022-11-19T04:27:19.851Z,0.89
2022-11-19T04:30:06.731Z,0.69
2022-11-19T04:32:53.067Z,0.83
2022-11-19T04:35:38.957Z,0.60
2022-11-19T04:38:25.173Z,0.73
2022-11-19T04:41:10.988Z,0.60
2022-11-19T04:43:57.368Z,1.53
2022-11-19T04:46:43.282Z,1.49
2022-11-19T04:49:29.733Z,1.71
2022-11-19T04:52:15.529Z,1.88
2022-11-19T04:55:01.311Z,1.83
2022-11-19T04:57:47.179Z,1.97
2022-11-19T05:00:33.278Z,2.09
2022-11-19T05:03:19.390Z,2.05
2022-11-19T05:06:05.683Z,1.72
2022-11-19T05:08:51.441Z,2.46
2022-11-19T05:11:37.838Z,2.51
2022-11-19T05:14:28.786Z,2.83
2022-11-19T05:17:16.152Z,2.13
2022-11-19T05:20:02.231Z,2.27
2022-11-19T05:22:48.344Z,1.42
2022-11-19T05:25:34.071Z,1.28
2022-11-19T05:28:24.837Z,0.67
2022-11-19T05:31:19.094Z,0.30
2022-11-19T05:34:04.869Z,0.39
2022-11-19T05:36:50.639Z,0.70
2022-11-19T05:39:36.705Z,0.54
2022-11-19T05:42:22.519Z,0.95
2022-11-19T05:45:09.386Z,0.35
2022-11-19T05:47:55.851Z,-0.17
2022-11-19T05:50:42.838Z,0.21
2022-11-19T05:53:28.792Z,-0.50
2022-11-19T05:56:15.121Z,-0.62
2022-11-19T05:59:01.132Z,-0.40
2022-11-19T06:01:47.378Z,-0.40
2022-11-19T06:04:33.655Z,-0.41
2022-11-19T06:07:19.872Z,-0.09
2022-11-19T06:10:06.548Z,-0.27
2022-11-19T06:12:52.625Z,-0.31
2022-11-19T06:15:38.884Z,-0.64
2022-11-19T06:18:24.733Z,-0.84
2022-11-19T06:21:12.306Z,-0.92
2022-11-19T06:23:58.642Z,-0.81
2022-11-19T06:26:45.575Z,-0.64
2022-11-19T06:29:31.403Z,-0.28
2022-11-19T06:32:17.788Z,-0.26
2022-11-19T06:35:04.240Z,-0.14
2022-11-19T06:37:50.681Z,-0.02
2022-11-19T06:40:36.415Z,-0.22
2022-11-19T06:43:22.898Z,-0.27
2022-11-19T06:46:09.804Z,-0.59
2022-11-19T06:48:55.993Z,-0.49
2022-11-19T06:51:42.286Z,-0.17
2022-11-19T06:54:28.696Z,-0.27
2022-11-19T06:57:14.507Z,-0.34
2022-11-19T07:00:00.935Z,-0.23
2022-11-19T07:02:47.470Z,0.01
2022-11-19T07:05:34.028Z,-0.23
2022-11-19T07:08:20.235Z,0.11
2022-11-19T07:11:25.845Z,0.08
2022-11-19T07:14:12.267Z,0.03
2022-11-19T07:16:58.632Z,-0.33
2022-11-19T07:19:44.460Z,-0.26
2022-11-19T07:22:31.283Z,-0.32
2022-11-19T07:25:17.651Z,-0.40
2022-11-19T07:28:04.040Z,-0.31
2022-11-19T07:30:49.943Z,-0.31
2022-11-19T07:33:39.130Z,-0.10
2022-11-19T07:36:25.225Z,-0.01
2022-11-19T07:39:11.490Z,-0.14
2022-11-19T07:42:15.935Z,-0.12
2022-11-19T07:45:03.183Z,0.21
2022-11-19T07:47:49.491Z,0.40
2022-11-19T07:50:36.053Z,0.48
2022-11-19T07:53:22.504Z,0.62
2022-11-19T07:56:08.757Z,0.69
2022-11-19T07:58:55.251Z,0.58
2022-11-19T08:01:42.120Z,0.99
2022-11-19T08:04:28.962Z,0.79
2022-11-19T08:07:14.910Z,1.64
2022-11-19T08:10:01.208Z,1.80
2022-11-19T08:13:03.172Z,2.79
2022-11-19T08:15:49.549Z,2.95
2022-11-19T08:18:35.688Z,2.91
2022-11-19T08:21:22.163Z,2.98
2022-11-19T08:24:09.151Z,1.96
2022-11-19T08:26:55.538Z,0.72
2022-11-19T08:29:41.653Z,1.27
2022-11-19T08:32:27.945Z,1.15
2022-11-19T08:35:13.916Z,1.00
2022-11-19T08:38:00.383Z,1.07
2022-11-19T08:41:13.836Z,1.45
2022-11-19T08:44:03.286Z,1.53
2022-11-19T08:46:50.627Z,1.82
2022-11-19T08:49:36.999Z,1.57
2022-11-19T08:52:22.675Z,1.66
2022-11-19T08:55:09.493Z,1.84
2022-11-19T08:58:02.274Z,2.52
2022-11-19T09:00:50.118Z,2.48
2022-11-19T09:03:36.158Z,2.22
2022-11-19T09:06:22.570Z,2.18
2022-11-19T09:09:09.035Z,2.65
2022-11-19T09:11:56.017Z,2.20
2022-11-19T09:14:42.159Z,2.38
2022-11-19T09:17:28.665Z,2.34
2022-11-19T09:20:14.452Z,2.02
2022-11-19T09:23:00.750Z,1.93
2022-11-19T09:25:58.610Z,1.93
2022-11-19T09:28:45.732Z,1.65
2022-11-19T09:31:31.612Z,2.20
2022-11-19T09:34:18.075Z,2.39
2022-11-19T09:37:04.842Z,2.18
2022-11-19T09:39:51.332Z,2.63
2022-11-19T09:43:01.638Z,2.30
2022-11-19T09:46:01.746Z,2.35
2022-11-19T09:48:48.935Z,2.64
2022-11-19T09:51:37.269Z,2.46
2022-11-19T09:54:23.570Z,1.97
2022-11-19T09:57:14.382Z,2.05
2022-11-19T10:00:02.202Z,2.03
2022-11-19T10:02:59.347Z,2.60
2022-11-19T10:06:07.886Z,2.69
2022-11-19T10:09:12.819Z,2.11
2022-11-19T10:12:02.407Z,2.43
2022-11-19T10:15:01.155Z,2.91
2022-11-19T10:17:58.583Z,2.18
2022-11-19T10:21:11.739Z,2.47
2022-11-19T10:24:18.186Z,2.55
2022-11-19T10:27:14.431Z,2.80
2022-11-19T10:30:06.100Z,2.57
2022-11-19T10:32:57.543Z,3.03
2022-11-19T10:35:51.112Z,3.41
2022-11-19T10:38:45.021Z,2.98
2022-11-19T10:41:45.571Z,3.94
2022-11-19T10:44:54.087Z,3.84
2022-11-19T10:47:44.481Z,3.51
2022-11-19T10:50:30.680Z,3.26
2022-11-19T10:53:33.255Z,3.60
2022-11-19T10:56:25.181Z,3.57
2022-11-19T10:59:13.805Z,3.76
2022-11-19T11:02:32.824Z,3.33
2022-11-19T11:05:19.581Z,3.07
2022-11-19T11:08:11.280Z,3.01
2022-11-19T11:10:57.784Z,3.47
2022-11-19T11:14:02.516Z,3.33
2022-11-19T11:16:48.845Z,2.84
2022-11-19T11:19:35.014Z,2.90
2022-11-19T11:22:21.942Z,3.51
2022-11-19T11:25:22.891Z,3.12
2022-11-19T11:28:15.589Z,3.51
2022-11-19T11:31:03.941Z,2.50
2022-11-19T11:33:57.864Z,3.24
2022-11-19T11:36:44.351Z,2.75
2022-11-19T11:39:35.260Z,2.82
2022-11-19T11:42:24.001Z,2.66
2022-11-19T11:45:21.828Z,3.23
2022-11-19T11:48:14.667Z,2.87
2022-11-19T11:51:01.204Z,2.97
2022-11-19T11:54:03.692Z,2.70
2022-11-19T11:56:50.803Z,2.93
2022-11-19T11:59:37.603Z,2.90
2022-11-19T12:02:32.400Z,2.70
2022-11-19T12:05:18.943Z,2.69
2022-11-19T12:08:20.693Z,3.27
2022-11-19T12:11:24.832Z,3.38
2022-11-19T12:14:11.579Z,3.59
2022-11-19T12:17:17.119Z,3.63
2022-11-19T12:20:17.690Z,3.67
2022-11-19T12:23:20.097Z,3.93
2022-11-19T12:26:22.031Z,4.69
2022-11-19T12:29:45.362Z,4.01
2022-11-19T12:32:58.947Z,4.48
2022-11-19T12:36:19.407Z,4.62
2022-11-19T12:39:22.906Z,4.42
2022-11-19T12:42:22.358Z,3.79
2022-11-19T12:45:43.918Z,4.00
2022-11-19T12:49:05.925Z,4.29
2022-11-19T12:52:12.547Z,3.95
2022-11-19T12:55:24.708Z,3.88
2022-11-19T12:58:21.241Z,3.73
2022-11-19T13:01:20.650Z,4.00
2022-11-19T13:04:40.564Z,4.58
2022-11-19T13:07:34.746Z,4.54
2022-11-19T13:10:55.184Z,4.35
2022-11-19T13:13:50.882Z,4.16
2022-11-19T13:16:39.682Z,4.40
2022-11-19T13:19:32.231Z,5.06
2022-11-19T13:22:23.467Z,4.27
2022-11-19T13:25:15.519Z,4.06
2022-11-19T13:28:03.099Z,4.53
2022-11-19T13:30:51.293Z,4.50
2022-11-19T13:33:49.552Z,3.92
2022-11-19T13:36:40.383Z,4.01
2022-11-19T13:39:33.976Z,3.93
2022-11-19T13:42:40.044Z,3.63
2022-11-19T13:45:26.392Z,3.98
2022-11-19T13:48:26.469Z,4.61
2022-11-19T13:51:22.711Z,4.62
2022-11-19T13:54:09.358Z,4.48
2022-11-19T13:56:57.410Z,4.67
2022-11-19T13:59:46.395Z,4.13
2022-11-19T14:03:17.644Z,4.39
2022-11-19T14:06:28.602Z,4.45
2022-11-19T14:09:24.611Z,4.39
2022-11-19T14:12:29.905Z,4.70
2022-11-19T14:15:54.426Z,4.61
2022-11-19T14:19:03.276Z,4.45
2022-11-19T14:22:12.925Z,3.88
2022-11-19T14:25:18.133Z,4.00
2022-11-19T14:28:41.875Z,5.02
2022-11-19T14:31:27.861Z,4.34
2022-11-19T14:34:26.756Z,5.38
2022-11-19T14:37:26.160Z,5.75
2022-11-19T14:40:21.256Z,6.34
2022-11-19T14:43:26.221Z,6.36
2022-11-19T14:46:12.068Z,6.14
2022-11-19T14:49:01.772Z,6.38
2022-11-19T14:51:52.411Z,6.62
2022-11-19T14:54:43.780Z,6.08
2022-11-19T14:57:34.949Z,5.82
2022-11-19T15:00:30.156Z,6.04
2022-11-19T15:03:24.844Z,6.19
2022-11-19T15:06:16.760Z,6.25
2022-11-19T15:09:02.813Z,6.41
2022-11-19T15:12:01.693Z,6.65
2022-11-19T15:15:05.941Z,6.50
2022-11-19T15:18:05.241Z,6.49
2022-11-19T15:21:32.351Z,6.04
2022-11-19T15:24:31.096Z,6.44
2022-11-19T15:27:42.317Z,6.53
2022-11-19T15:30:39.058Z,6.54
2022-11-19T15:33:28.295Z,6.46
2022-11-19T15:36:33.685Z,6.48
2022-11-19T15:39:38.024Z,6.36
2022-11-19T15:42:34.770Z,6.51
2022-11-19T15:45:23.132Z,6.54
2022-11-19T15:48:16.527Z,6.55
2022-11-19T15:51:03.593Z,6.43
2022-11-19T15:54:02.713Z,6.52
2022-11-19T15:56:50.319Z,5.89
2022-11-19T15:59:38.254Z,5.53
2022-11-19T16:02:38.789Z,5.40
2022-11-19T16:05:27.355Z,5.37
2022-11-19T16:08:14.739Z,5.28
2022-11-19T16:11:20.700Z,5.56
2022-11-19T16:14:46.102Z,5.41
2022-11-19T16:17:44.475Z,5.27
2022-11-19T16:20:33.272Z,4.79
2022-11-19T16:23:21.778Z,4.85
2022-11-19T16:26:08.045Z,4.85
2022-11-19T16:28:54.262Z,4.62
2022-11-19T16:31:40.651Z,4.43
2022-11-19T16:34:32.095Z,4.64
2022-11-19T16:37:20.714Z,4.72
2022-11-19T16:40:12.513Z,4.97
2022-11-19T16:42:59.815Z,5.09
2022-11-19T16:45:46.665Z,5.15
2022-11-19T16:48:41.574Z,4.74
2022-11-19T16:51:40.908Z,5.05
2022-11-19T16:54:43.145Z,5.16
2022-11-19T16:57:29.573Z,5.14
2022-11-19T17:00:17.446Z,4.83
2022-11-19T17:03:17.142Z,4.83
2022-11-19T17:06:04.152Z,4.68
2022-11-19T17:09:00.105Z,4.78
2022-11-19T17:12:04.499Z,4.73
2022-11-19T17:14:52.084Z,4.72
2022-11-19T17:17:40.711Z,4.48
2022-11-19T17:20:46.889Z,4.13
2022-11-19T17:23:33.202Z,3.59
2022-11-19T17:26:23.472Z,3.72
2022-11-19T17:29:10.270Z,3.69
2022-11-19T17:31:56.707Z,3.91
2022-11-19T17:34:46.300Z,3.94
2022-11-19T17:37:32.254Z,3.71
2022-11-19T17:40:18.226Z,3.81
2022-11-19T17:43:26.874Z,4.27
2022-11-19T17:46:12.938Z,3.93
2022-11-19T17:48:59.227Z,4.23
2022-11-19T17:51:45.122Z,4.17
2022-11-19T17:54:31.779Z,4.05
2022-11-19T17:57:17.636Z,3.95
2022-11-19T18:00:04.220Z,3.88
2022-11-19T18:02:50.655Z,3.71
2022-11-19T18:05:36.992Z,3.68
2022-11-19T18:08:22.852Z,3.30
2022-11-19T18:11:13.288Z,3.40
2022-11-19T18:14:01.748Z,3.91
2022-11-19T18:16:47.968Z,3.68
2022-11-19T18:19:33.750Z,3.55
2022-11-19T18:22:20.190Z,3.51
2022-11-19T18:25:17.390Z,3.71
2022-11-19T18:28:03.622Z,3.55
2022-11-19T18:30:49.793Z,3.49
2022-11-19T18:33:36.549Z,3.90
2022-11-19T18:36:23.032Z,3.87
2022-11-19T18:39:09.279Z,3.58
2022-11-19T18:41:54.978Z,3.70
2022-11-19T18:44:43.304Z,3.80
2022-11-19T18:47:29.657Z,3.23
2022-11-19T18:50:15.502Z,3.71
2022-11-19T18:53:01.301Z,4.13
2022-11-19T18:55:48.420Z,3.75
2022-11-19T18:58:34.229Z,3.36
2022-11-19T19:01:20.502Z,3.05
2022-11-19T19:04:06.726Z,3.04
2022-11-19T19:06:53.057Z,3.23
2022-11-19T19:09:39.113Z,3.33
2022-11-19T19:12:25.456Z,3.30
2022-11-19T19:15:11.274Z,3.71
2022-11-19T19:17:57.889Z,3.62
2022-11-19T19:20:43.676Z,3.64
2022-11-19T19:23:29.686Z,3.74
2022-11-19T19:26:18.996Z,3.28
2022-11-19T19:29:06.150Z,3.47
2022-11-19T19:31:52.211Z,3.79
2022-11-19T19:34:38.552Z,3.53
2022-11-19T19:37:24.628Z,3.47
2022-11-19T19:40:11.238Z,3.64
2022-11-19T19:42:57.396Z,3.47
2022-11-19T19:45:43.516Z,3.53
2022-11-19T19:48:29.284Z,3.47
2022-11-19T19:51:16.618Z,3.77
2022-11-19T19:54:02.087Z,3.35
2022-11-19T19:56:47.841Z,3.66
2022-11-19T19:59:33.864Z,3.50
2022-11-19T20:02:20.083Z,3.62
2022-11-19T20:05:06.341Z,3.22
2022-11-19T20:07:51.988Z,3.44
2022-11-19T20:10:38.431Z,3.63
2022-11-19T20:13:27.468Z,3.70
2022-11-19T20:16:18.691Z,2.86
2022-11-19T20:19:07.163Z,3.25
2022-11-19T20:21:54.464Z,3.45
2022-11-19T20:24:40.367Z,3.84
2022-11-19T20:27:26.734Z,3.52
2022-11-19T20:30:12.696Z,3.41
2022-11-19T20:32:58.842Z,3.26
2022-11-19T20:35:53.904Z,3.26
2022-11-19T20:38:44.218Z,3.53
2022-11-19T20:41:48.992Z,3.41
2022-11-19T20:44:35.102Z,3.15
2022-11-19T20:47:21.132Z,3.24
2022-11-19T20:50:07.758Z,3.13
2022-11-19T20:52:53.428Z,3.16
2022-11-19T20:56:03.589Z,3.09
2022-11-19T20:58:45.378Z,3.15
2022-11-19T21:01:31.959Z,3.30
2022-11-19T21:04:18.394Z,3.34
2022-11-19T21:07:04.734Z,3.04
2022-11-19T21:09:50.438Z,3.44
2022-11-19T21:12:36.831Z,3.43
2022-11-19T21:15:22.675Z,3.14
2022-11-19T21:18:08.513Z,3.38
2022-11-19T21:21:00.396Z,2.98
2022-11-19T21:23:46.497Z,2.79
2022-11-19T21:26:32.598Z,2.98
2022-11-19T21:29:18.577Z,2.91
2022-11-19T21:32:04.311Z,3.41
2022-11-19T21:34:50.622Z,3.00
2022-11-19T21:37:36.540Z,2.81
2022-11-19T21:40:22.871Z,3.24
2022-11-19T21:43:08.702Z,2.47
2022-11-19T21:45:54.943Z,2.75
2022-11-19T21:48:40.365Z,2.51
2022-11-19T21:51:26.786Z,3.24
2022-11-19T21:54:12.694Z,3.06
2022-11-19T21:56:58.567Z,3.20
2022-11-19T21:59:44.582Z,2.61
2022-11-19T22:02:30.905Z,3.06
2022-11-19T22:05:16.748Z,3.31
2022-11-19T22:08:02.659Z,3.00
2022-11-19T22:10:48.863Z,2.08
2022-11-19T22:13:34.668Z,2.57
2022-11-19T22:16:20.671Z,2.83
2022-11-19T22:19:06.451Z,2.17
2022-11-19T22:21:52.542Z,2.13
2022-11-19T22:24:38.571Z,2.36
2022-11-19T22:27:24.683Z,2.85
2022-11-19T22:30:10.840Z,2.61
2022-11-19T22:32:56.564Z,2.62
2022-11-19T22:35:42.341Z,2.76
2022-11-19T22:38:28.284Z,1.93
2022-11-19T22:41:18.174Z,2.73
2022-11-19T22:44:05.419Z,2.36
2022-11-19T22:46:51.119Z,2.20
2022-11-19T22:49:37.385Z,2.84
2022-11-19T22:52:23.219Z,2.93
2022-11-19T22:55:09.690Z,2.78
2022-11-19T22:57:55.190Z,2.91
2022-11-19T23:00:42.932Z,2.59
2022-11-19T23:03:29.206Z,2.74
2022-11-19T23:06:15.501Z,2.40
2022-11-19T23:09:04.920Z,2.67
2022-11-19T23:12:09.499Z,2.87
2022-11-19T23:14:55.102Z,3.05
2022-11-19T23:17:44.711Z,2.92
2022-11-19T23:20:33.319Z,3.06
2022-11-19T23:23:19.679Z,2.70
2022-11-19T23:26:06.265Z,2.33
2022-11-19T23:28:52.777Z,2.80
2022-11-19T23:31:39.184Z,2.62
2022-11-19T23:34:25.289Z,2.51
2022-11-19T23:37:11.006Z,2.93
2022-11-19T23:39:56.881Z,2.78
2022-11-19T23:42:43.490Z,2.95
2022-11-19T23:45:35.967Z,2.60
2022-11-19T23:48:22.090Z,2.54
2022-11-19T23:51:12.129Z,2.45
2022-11-19T23:53:58.315Z,2.24
2022-11-19T23:56:44.344Z,2.39
2022-11-19T23:59:30.616Z,2.94
